sensor_id;sensor_type;location;lat;lon;timestamp;pressure;altitude;pressure_sealevel;temperature;humidity
62103;BME280;48077;48.104;11.702;2023-05-25T00:01:24;95755.31;;;10.32;77.77
62103;BME280;48077;48.104;11.702;2023-05-25T00:07:40;95764.47;;;10.18;78.52
62103;BME280;48077;48.104;11.702;2023-05-25T00:10:04;95758.25;;;10.05;79.24
62103;BME280;48077;48.104;11.702;2023-05-25T00:12:28;95772.38;;;10.06;79.18
62103;BME280;48077;48.104;11.702;2023-05-25T00:14:52;95769.59;;;10.01;80.01
62103;BME280;48077;48.104;11.702;2023-05-25T00:17:15;95770.84;;;9.98;80.53
62103;BME280;48077;48.104;11.702;2023-05-25T00:19:40;95771.28;;;9.95;81.13
62103;BME280;48077;48.104;11.702;2023-05-25T00:22:07;95762.25;;;9.96;81.34
62103;BME280;48077;48.104;11.702;2023-05-25T00:24:31;95769.41;;;9.96;80.80
62103;BME280;48077;48.104;11.702;2023-05-25T00:26:55;95774.31;;;9.99;81.95
62103;BME280;48077;48.104;11.702;2023-05-25T00:29:18;95767.72;;;10.01;82.00
62103;BME280;48077;48.104;11.702;2023-05-25T00:31:42;95757.94;;;9.95;81.97
62103;BME280;48077;48.104;11.702;2023-05-25T00:34:05;95761.38;;;10.02;81.70
62103;BME280;48077;48.104;11.702;2023-05-25T00:36:28;95760.31;;;10.03;82.31
62103;BME280;48077;48.104;11.702;2023-05-25T00:38:52;95751.31;;;10.04;82.44
62103;BME280;48077;48.104;11.702;2023-05-25T00:41:18;95760.69;;;10.07;82.58
62103;BME280;48077;48.104;11.702;2023-05-25T00:43:43;95756.69;;;10.16;80.61
62103;BME280;48077;48.104;11.702;2023-05-25T00:46:08;95762.47;;;10.13;81.08
62103;BME280;48077;48.104;11.702;2023-05-25T00:48:32;95752.69;;;10.07;81.35
62103;BME280;48077;48.104;11.702;2023-05-25T00:50:56;95751.81;;;10.13;82.22
62103;BME280;48077;48.104;11.702;2023-05-25T00:53:22;95753.22;;;10.16;82.18
62103;BME280;48077;48.104;11.702;2023-05-25T00:55:52;95742.84;;;10.07;82.44
62103;BME280;48077;48.104;11.702;2023-05-25T00:58:19;95750.16;;;10.12;82.32
62103;BME280;48077;48.104;11.702;2023-05-25T01:00:44;95737.31;;;10.09;82.00
62103;BME280;48077;48.104;11.702;2023-05-25T01:03:11;95752.19;;;10.17;81.40
62103;BME280;48077;48.104;11.702;2023-05-25T01:05:43;95757.94;;;10.13;82.12
62103;BME280;48077;48.104;11.702;2023-05-25T01:08:08;95757.56;;;10.10;83.06
62103;BME280;48077;48.104;11.702;2023-05-25T01:10:32;95757.88;;;10.02;83.92
62103;BME280;48077;48.104;11.702;2023-05-25T01:12:59;95758.72;;;10.02;83.93
62103;BME280;48077;48.104;11.702;2023-05-25T01:15:24;95754.78;;;10.05;84.27
62103;BME280;48077;48.104;11.702;2023-05-25T01:17:48;95745.44;;;9.96;84.91
62103;BME280;48077;48.104;11.702;2023-05-25T01:20:15;95747.66;;;9.99;85.52
62103;BME280;48077;48.104;11.702;2023-05-25T01:22:50;95756.03;;;10.02;85.58
62103;BME280;48077;48.104;11.702;2023-05-25T01:25:30;95753.00;;;9.99;85.61
62103;BME280;48077;48.104;11.702;2023-05-25T01:28:02;95754.69;;;10.11;85.79
62103;BME280;48077;48.104;11.702;2023-05-25T01:30:27;95754.56;;;10.06;85.82
62103;BME280;48077;48.104;11.702;2023-05-25T01:32:52;95749.06;;;10.01;86.63
62103;BME280;48077;48.104;11.702;2023-05-25T01:35:16;95745.44;;;9.96;86.77
62103;BME280;48077;48.104;11.702;2023-05-25T01:37:48;95750.47;;;10.04;87.96
62103;BME280;48077;48.104;11.702;2023-05-25T01:40:13;95758.25;;;10.05;88.15
62103;BME280;48077;48.104;11.702;2023-05-25T01:42:37;95744.53;;;10.02;88.42
62103;BME280;48077;48.104;11.702;2023-05-25T01:45:03;95753.72;;;10.06;88.86
62103;BME280;48077;48.104;11.702;2023-05-25T01:50:35;95749.44;;;10.05;88.79
62103;BME280;48077;48.104;11.702;2023-05-25T01:53:05;95756.84;;;10.03;89.86
62103;BME280;48077;48.104;11.702;2023-05-25T01:55:36;95764.38;;;10.06;89.99
62103;BME280;48077;48.104;11.702;2023-05-25T01:58:01;95765.44;;;10.05;90.18
62103;BME280;48077;48.104;11.702;2023-05-25T02:00:25;95766.25;;;10.05;90.77
62103;BME280;48077;48.104;11.702;2023-05-25T02:02:53;95766.03;;;10.07;90.92
62103;BME280;48077;48.104;11.702;2023-05-25T02:05:21;95768.69;;;10.07;91.16
62103;BME280;48077;48.104;11.702;2023-05-25T02:07:44;95761.72;;;10.06;91.25
62103;BME280;48077;48.104;11.702;2023-05-25T02:10:08;95764.94;;;10.15;91.58
62103;BME280;48077;48.104;11.702;2023-05-25T02:12:31;95766.53;;;10.16;92.32
62103;BME280;48077;48.104;11.702;2023-05-25T02:14:54;95741.38;;;10.11;92.98
62103;BME280;48077;48.104;11.702;2023-05-25T02:17:18;95739.28;;;10.13;92.30
62103;BME280;48077;48.104;11.702;2023-05-25T02:19:42;95745.00;;;10.17;92.93
62103;BME280;48077;48.104;11.702;2023-05-25T02:22:05;95742.09;;;10.19;93.97
62103;BME280;48077;48.104;11.702;2023-05-25T02:24:28;95754.78;;;10.23;94.07
62103;BME280;48077;48.104;11.702;2023-05-25T02:26:52;95752.22;;;10.28;94.65
62103;BME280;48077;48.104;11.702;2023-05-25T02:29:15;95748.31;;;10.31;94.93
62103;BME280;48077;48.104;11.702;2023-05-25T02:31:39;95744.31;;;10.22;95.05
62103;BME280;48077;48.104;11.702;2023-05-25T02:34:02;95753.03;;;10.29;95.53
62103;BME280;48077;48.104;11.702;2023-05-25T02:36:26;95750.38;;;10.29;96.20
62103;BME280;48077;48.104;11.702;2023-05-25T02:38:50;95735.88;;;10.25;96.49
62103;BME280;48077;48.104;11.702;2023-05-25T02:41:18;95757.28;;;10.37;97.43
62103;BME280;48077;48.104;11.702;2023-05-25T02:43:42;95749.28;;;10.37;98.50
62103;BME280;48077;48.104;11.702;2023-05-25T02:46:05;95724.75;;;10.28;99.80
62103;BME280;48077;48.104;11.702;2023-05-25T02:48:29;95750.94;;;10.38;100.00
62103;BME280;48077;48.104;11.702;2023-05-25T02:50:52;95749.19;;;10.43;100.00
62103;BME280;48077;48.104;11.702;2023-05-25T02:53:16;95750.38;;;10.47;100.00
62103;BME280;48077;48.104;11.702;2023-05-25T02:55:39;95738.41;;;10.38;100.00
62103;BME280;48077;48.104;11.702;2023-05-25T02:58:05;95749.78;;;10.45;100.00
62103;BME280;48077;48.104;11.702;2023-05-25T03:00:28;95749.69;;;10.52;100.00
62103;BME280;48077;48.104;11.702;2023-05-25T03:02:52;95742.97;;;10.49;100.00
62103;BME280;48077;48.104;11.702;2023-05-25T03:05:16;95727.22;;;10.48;100.00
62103;BME280;48077;48.104;11.702;2023-05-25T03:07:39;95742.44;;;10.59;100.00
62103;BME280;48077;48.104;11.702;2023-05-25T03:10:04;95740.78;;;10.58;100.00
62103;BME280;48077;48.104;11.702;2023-05-25T03:12:28;95732.09;;;10.51;100.00
62103;BME280;48077;48.104;11.702;2023-05-25T03:14:51;95725.34;;;10.48;100.00
62103;BME280;48077;48.104;11.702;2023-05-25T03:17:14;95731.03;;;10.52;100.00
62103;BME280;48077;48.104;11.702;2023-05-25T03:19:38;95750.75;;;10.51;100.00
62103;BME280;48077;48.104;11.702;2023-05-25T03:22:02;95749.13;;;10.50;100.00
62103;BME280;48077;48.104;11.702;2023-05-25T03:24:25;95752.81;;;10.49;100.00
62103;BME280;48077;48.104;11.702;2023-05-25T03:26:49;95755.28;;;10.50;100.00
62103;BME280;48077;48.104;11.702;2023-05-25T03:29:12;95757.25;;;10.55;100.00
62103;BME280;48077;48.104;11.702;2023-05-25T03:31:35;95757.97;;;10.62;100.00
62103;BME280;48077;48.104;11.702;2023-05-25T03:33:59;95754.66;;;10.67;100.00
62103;BME280;48077;48.104;11.702;2023-05-25T03:36:22;95743.66;;;10.87;100.00
62103;BME280;48077;48.104;11.702;2023-05-25T03:38:49;95747.22;;;10.69;100.00
62103;BME280;48077;48.104;11.702;2023-05-25T03:41:12;95749.16;;;10.62;100.00
62103;BME280;48077;48.104;11.702;2023-05-25T03:43:36;95743.47;;;10.58;100.00
62103;BME280;48077;48.104;11.702;2023-05-25T03:45:59;95753.31;;;10.58;100.00
62103;BME280;48077;48.104;11.702;2023-05-25T03:48:22;95745.59;;;10.68;100.00
62103;BME280;48077;48.104;11.702;2023-05-25T03:50:46;95741.16;;;10.62;100.00
62103;BME280;48077;48.104;11.702;2023-05-25T03:53:09;95749.06;;;10.68;100.00
62103;BME280;48077;48.104;11.702;2023-05-25T03:55:33;95745.22;;;10.64;100.00
62103;BME280;48077;48.104;11.702;2023-05-25T03:57:56;95743.03;;;10.61;100.00
62103;BME280;48077;48.104;11.702;2023-05-25T04:00:20;95757.31;;;10.67;100.00
62103;BME280;48077;48.104;11.702;2023-05-25T04:02:43;95759.50;;;10.70;100.00
62103;BME280;48077;48.104;11.702;2023-05-25T04:05:07;95761.97;;;10.83;100.00
62103;BME280;48077;48.104;11.702;2023-05-25T04:07:30;95768.38;;;10.82;100.00
62103;BME280;48077;48.104;11.702;2023-05-25T04:09:54;95766.19;;;10.79;100.00
62103;BME280;48077;48.104;11.702;2023-05-25T04:12:17;95769.66;;;10.80;100.00
62103;BME280;48077;48.104;11.702;2023-05-25T04:14:43;95770.44;;;10.80;100.00
62103;BME280;48077;48.104;11.702;2023-05-25T04:17:08;95763.03;;;10.82;100.00
62103;BME280;48077;48.104;11.702;2023-05-25T04:19:31;95767.69;;;10.87;100.00
62103;BME280;48077;48.104;11.702;2023-05-25T04:21:55;95772.13;;;10.93;100.00
62103;BME280;48077;48.104;11.702;2023-05-25T04:24:18;95757.59;;;10.89;100.00
62103;BME280;48077;48.104;11.702;2023-05-25T04:26:41;95774.56;;;10.94;100.00
62103;BME280;48077;48.104;11.702;2023-05-25T04:29:08;95774.94;;;10.98;100.00
62103;BME280;48077;48.104;11.702;2023-05-25T04:31:31;95776.31;;;11.01;100.00
62103;BME280;48077;48.104;11.702;2023-05-25T04:33:57;95776.09;;;11.14;100.00
62103;BME280;48077;48.104;11.702;2023-05-25T04:36:22;95770.19;;;11.12;99.63
62103;BME280;48077;48.104;11.702;2023-05-25T04:38:46;95767.19;;;11.08;99.72
62103;BME280;48077;48.104;11.702;2023-05-25T04:41:09;95758.25;;;11.14;99.23
62103;BME280;48077;48.104;11.702;2023-05-25T04:43:35;95765.22;;;11.16;99.52
62103;BME280;48077;48.104;11.702;2023-05-25T04:45:58;95765.22;;;11.16;99.41
62103;BME280;48077;48.104;11.702;2023-05-25T04:48:22;95772.41;;;11.15;100.00
62103;BME280;48077;48.104;11.702;2023-05-25T04:50:46;95769.16;;;11.13;100.00
62103;BME280;48077;48.104;11.702;2023-05-25T04:53:10;95781.22;;;11.16;100.00
62103;BME280;48077;48.104;11.702;2023-05-25T04:55:33;95769.59;;;11.10;100.00
62103;BME280;48077;48.104;11.702;2023-05-25T04:57:57;95787.50;;;11.21;100.00
62103;BME280;48077;48.104;11.702;2023-05-25T05:00:21;95783.81;;;11.34;98.64
62103;BME280;48077;48.104;11.702;2023-05-25T05:02:46;95784.97;;;11.26;99.38
62103;BME280;48077;48.104;11.702;2023-05-25T05:05:10;95797.03;;;11.29;100.00
62103;BME280;48077;48.104;11.702;2023-05-25T05:07:33;95789.84;;;11.29;100.00
62103;BME280;48077;48.104;11.702;2023-05-25T05:09:56;95800.19;;;11.38;99.83
62103;BME280;48077;48.104;11.702;2023-05-25T05:12:20;95799.63;;;11.36;99.53
62103;BME280;48077;48.104;11.702;2023-05-25T05:14:43;95787.09;;;11.48;97.61
62103;BME280;48077;48.104;11.702;2023-05-25T05:17:07;95791.84;;;11.46;98.43
62103;BME280;48077;48.104;11.702;2023-05-25T05:19:30;95790.09;;;11.40;98.69
62103;BME280;48077;48.104;11.702;2023-05-25T05:21:55;95788.94;;;11.36;99.19
62103;BME280;48077;48.104;11.702;2023-05-25T05:24:18;95788.56;;;11.32;99.64
62103;BME280;48077;48.104;11.702;2023-05-25T05:26:41;95796.25;;;11.40;99.67
62103;BME280;48077;48.104;11.702;2023-05-25T05:29:05;95804.84;;;11.54;99.28
62103;BME280;48077;48.104;11.702;2023-05-25T05:31:28;95807.63;;;11.47;99.22
62103;BME280;48077;48.104;11.702;2023-05-25T05:33:52;95801.13;;;11.43;99.47
62103;BME280;48077;48.104;11.702;2023-05-25T05:36:15;95806.00;;;11.46;99.92
62103;BME280;48077;48.104;11.702;2023-05-25T05:38:38;95804.97;;;11.47;99.68
62103;BME280;48077;48.104;11.702;2023-05-25T05:41:03;95819.03;;;11.54;99.74
62103;BME280;48077;48.104;11.702;2023-05-25T05:43:30;95817.53;;;11.59;99.26
62103;BME280;48077;48.104;11.702;2023-05-25T05:45:53;95814.72;;;11.53;99.55
62103;BME280;48077;48.104;11.702;2023-05-25T05:48:17;95821.22;;;11.58;100.00
62103;BME280;48077;48.104;11.702;2023-05-25T05:50:40;95813.22;;;11.58;99.56
62103;BME280;48077;48.104;11.702;2023-05-25T05:53:04;95814.50;;;11.55;100.00
62103;BME280;48077;48.104;11.702;2023-05-25T05:55:28;95823.09;;;11.57;100.00
62103;BME280;48077;48.104;11.702;2023-05-25T05:57:51;95813.47;;;11.68;99.31
62103;BME280;48077;48.104;11.702;2023-05-25T06:00:15;95822.41;;;11.62;99.99
62103;BME280;48077;48.104;11.702;2023-05-25T06:02:39;95822.03;;;11.58;100.00
62103;BME280;48077;48.104;11.702;2023-05-25T06:05:02;95823.91;;;11.58;100.00
62103;BME280;48077;48.104;11.702;2023-05-25T06:07:26;95800.78;;;11.51;100.00
62103;BME280;48077;48.104;11.702;2023-05-25T06:09:51;95827.28;;;11.77;98.47
62103;BME280;48077;48.104;11.702;2023-05-25T06:12:14;95827.38;;;11.58;100.00
62103;BME280;48077;48.104;11.702;2023-05-25T06:14:38;95829.25;;;11.58;100.00
62103;BME280;48077;48.104;11.702;2023-05-25T06:17:01;95831.91;;;11.58;100.00
62103;BME280;48077;48.104;11.702;2023-05-25T06:19:24;95839.47;;;11.61;100.00
62103;BME280;48077;48.104;11.702;2023-05-25T06:21:48;95820.78;;;11.61;99.97
62103;BME280;48077;48.104;11.702;2023-05-25T06:24:11;95833.44;;;11.65;99.37
62103;BME280;48077;48.104;11.702;2023-05-25T06:26:34;95842.75;;;11.63;100.00
62103;BME280;48077;48.104;11.702;2023-05-25T06:28:58;95848.41;;;11.66;100.00
62103;BME280;48077;48.104;11.702;2023-05-25T06:31:21;95836.81;;;11.61;99.91
62103;BME280;48077;48.104;11.702;2023-05-25T06:33:44;95836.69;;;11.55;100.00
62103;BME280;48077;48.104;11.702;2023-05-25T06:36:08;95852.16;;;11.65;100.00
62103;BME280;48077;48.104;11.702;2023-05-25T06:38:31;95855.84;;;11.64;100.00
62103;BME280;48077;48.104;11.702;2023-05-25T06:40:55;95853.31;;;11.69;100.00
62103;BME280;48077;48.104;11.702;2023-05-25T06:43:19;95847.97;;;11.69;100.00
62103;BME280;48077;48.104;11.702;2023-05-25T06:45:42;95850.09;;;11.79;99.64
62103;BME280;48077;48.104;11.702;2023-05-25T06:48:05;95847.88;;;11.88;98.83
62103;BME280;48077;48.104;11.702;2023-05-25T06:50:29;95855.44;;;11.79;100.00
62103;BME280;48077;48.104;11.702;2023-05-25T06:52:52;95868.00;;;11.90;99.53
62103;BME280;48077;48.104;11.702;2023-05-25T06:55:16;95860.50;;;11.81;100.00
62103;BME280;48077;48.104;11.702;2023-05-25T06:57:39;95863.91;;;11.88;100.00
62103;BME280;48077;48.104;11.702;2023-05-25T07:00:03;95867.53;;;11.93;100.00
62103;BME280;48077;48.104;11.702;2023-05-25T07:02:33;95863.25;;;11.92;99.36
62103;BME280;48077;48.104;11.702;2023-05-25T07:04:57;95861.94;;;11.95;99.40
62103;BME280;48077;48.104;11.702;2023-05-25T07:07:20;95862.66;;;12.02;97.59
62103;BME280;48077;48.104;11.702;2023-05-25T07:09:44;95863.94;;;12.00;98.34
62103;BME280;48077;48.104;11.702;2023-05-25T07:12:08;95873.69;;;12.06;97.41
62103;BME280;48077;48.104;11.702;2023-05-25T07:14:33;95870.69;;;12.02;97.59
62103;BME280;48077;48.104;11.702;2023-05-25T07:16:56;95862.53;;;11.97;97.73
62103;BME280;48077;48.104;11.702;2023-05-25T07:19:20;95867.44;;;12.00;97.58
62103;BME280;48077;48.104;11.702;2023-05-25T07:21:43;95850.69;;;12.05;96.59
62103;BME280;48077;48.104;11.702;2023-05-25T07:24:06;95855.91;;;12.00;97.05
62103;BME280;48077;48.104;11.702;2023-05-25T07:26:30;95863.94;;;12.11;97.23
62103;BME280;48077;48.104;11.702;2023-05-25T07:28:54;95861.84;;;12.13;96.71
62103;BME280;48077;48.104;11.702;2023-05-25T07:31:17;95863.22;;;12.28;94.43
62103;BME280;48077;48.104;11.702;2023-05-25T07:33:41;95854.97;;;12.18;94.87
62103;BME280;48077;48.104;11.702;2023-05-25T07:36:04;95869.16;;;12.30;95.02
62103;BME280;48077;48.104;11.702;2023-05-25T07:38:28;95873.78;;;12.46;94.18
62103;BME280;48077;48.104;11.702;2023-05-25T07:40:51;95862.66;;;12.38;94.21
62103;BME280;48077;48.104;11.702;2023-05-25T07:43:15;95877.50;;;12.45;94.31
62103;BME280;48077;48.104;11.702;2023-05-25T07:45:38;95878.22;;;12.41;95.26
62103;BME280;48077;48.104;11.702;2023-05-25T07:48:02;95882.00;;;12.68;92.59
62103;BME280;48077;48.104;11.702;2023-05-25T07:50:27;95878.34;;;12.46;94.29
62103;BME280;48077;48.104;11.702;2023-05-25T07:52:51;95878.09;;;12.47;94.73
62103;BME280;48077;48.104;11.702;2023-05-25T07:55:14;95885.16;;;12.53;94.13
62103;BME280;48077;48.104;11.702;2023-05-25T07:57:38;95892.25;;;12.60;93.87
62103;BME280;48077;48.104;11.702;2023-05-25T08:00:02;95890.38;;;12.60;94.50
62103;BME280;48077;48.104;11.702;2023-05-25T08:02:28;95887.94;;;12.70;94.82
62103;BME280;48077;48.104;11.702;2023-05-25T08:04:51;95891.63;;;12.81;92.90
62103;BME280;48077;48.104;11.702;2023-05-25T08:07:17;95884.06;;;12.90;93.41
62103;BME280;48077;48.104;11.702;2023-05-25T08:09:40;95896.81;;;13.00;93.35
62103;BME280;48077;48.104;11.702;2023-05-25T08:12:04;95895.84;;;13.06;92.19
62103;BME280;48077;48.104;11.702;2023-05-25T08:14:27;95903.38;;;13.21;90.87
62103;BME280;48077;48.104;11.702;2023-05-25T08:16:51;95894.19;;;13.16;92.15
62103;BME280;48077;48.104;11.702;2023-05-25T08:19:14;95901.03;;;13.24;91.63
62103;BME280;48077;48.104;11.702;2023-05-25T08:21:37;95905.47;;;13.30;91.06
62103;BME280;48077;48.104;11.702;2023-05-25T08:24:03;95891.47;;;13.28;91.07
62103;BME280;48077;48.104;11.702;2023-05-25T08:26:27;95910.28;;;13.45;90.45
62103;BME280;48077;48.104;11.702;2023-05-25T08:28:50;95891.47;;;13.57;87.49
62103;BME280;48077;48.104;11.702;2023-05-25T08:31:13;95905.22;;;13.77;86.44
62103;BME280;48077;48.104;11.702;2023-05-25T08:33:37;95907.97;;;13.66;87.51
62103;BME280;48077;48.104;11.702;2023-05-25T08:36:00;95911.03;;;13.57;87.55
62103;BME280;48077;48.104;11.702;2023-05-25T08:38:24;95902.63;;;13.37;89.45
62103;BME280;48077;48.104;11.702;2023-05-25T08:40:55;95908.47;;;13.63;87.78
62103;BME280;48077;48.104;11.702;2023-05-25T08:43:21;95902.75;;;13.42;89.06
62103;BME280;48077;48.104;11.702;2023-05-25T08:45:44;95915.41;;;13.47;89.89
62103;BME280;48077;48.104;11.702;2023-05-25T08:48:09;95907.28;;;13.42;89.52
62103;BME280;48077;48.104;11.702;2023-05-25T08:50:34;95925.97;;;13.53;88.22
62103;BME280;48077;48.104;11.702;2023-05-25T08:53:02;95919.78;;;13.36;89.96
62103;BME280;48077;48.104;11.702;2023-05-25T08:55:26;95917.72;;;13.55;87.96
62103;BME280;48077;48.104;11.702;2023-05-25T08:58:03;95922.16;;;13.49;88.92
62103;BME280;48077;48.104;11.702;2023-05-25T09:00:33;95922.81;;;13.40;90.82
62103;BME280;48077;48.104;11.702;2023-05-25T09:05:29;95930.41;;;13.48;91.33
62103;BME280;48077;48.104;11.702;2023-05-25T09:07:53;95932.06;;;13.49;89.79
62103;BME280;48077;48.104;11.702;2023-05-25T09:10:19;95933.56;;;13.56;89.32
62103;BME280;48077;48.104;11.702;2023-05-25T09:12:45;95932.97;;;13.54;89.40
62103;BME280;48077;48.104;11.702;2023-05-25T09:15:10;95937.50;;;13.54;89.67
62103;BME280;48077;48.104;11.702;2023-05-25T09:17:34;95937.94;;;13.63;89.17
62103;BME280;48077;48.104;11.702;2023-05-25T09:19:58;95941.28;;;13.70;89.21
62103;BME280;48077;48.104;11.702;2023-05-25T09:22:21;95945.19;;;13.79;87.99
62103;BME280;48077;48.104;11.702;2023-05-25T09:24:45;95936.03;;;13.75;88.71
62103;BME280;48077;48.104;11.702;2023-05-25T09:27:15;95940.84;;;13.90;87.52
62103;BME280;48077;48.104;11.702;2023-05-25T09:29:39;95936.44;;;13.84;87.78
62103;BME280;48077;48.104;11.702;2023-05-25T09:32:04;95940.16;;;14.00;87.47
62103;BME280;48077;48.104;11.702;2023-05-25T09:34:31;95953.28;;;14.13;86.44
62103;BME280;48077;48.104;11.702;2023-05-25T09:36:57;95948.78;;;14.18;86.07
62103;BME280;48077;48.104;11.702;2023-05-25T09:39:21;95955.16;;;14.29;86.14
62103;BME280;48077;48.104;11.702;2023-05-25T09:41:44;95958.28;;;14.43;85.18
62103;BME280;48077;48.104;11.702;2023-05-25T09:44:08;95953.44;;;14.40;85.38
62103;BME280;48077;48.104;11.702;2023-05-25T09:46:31;95971.66;;;14.38;84.54
62103;BME280;48077;48.104;11.702;2023-05-25T09:48:59;95972.84;;;14.30;85.57
62103;BME280;48077;48.104;11.702;2023-05-25T09:51:22;95963.59;;;14.38;83.61
62103;BME280;48077;48.104;11.702;2023-05-25T09:53:46;95968.00;;;14.27;84.78
62103;BME280;48077;48.104;11.702;2023-05-25T09:56:10;95964.22;;;14.45;85.62
62103;BME280;48077;48.104;11.702;2023-05-25T09:58:34;95957.06;;;14.68;85.84
62103;BME280;48077;48.104;11.702;2023-05-25T10:00:58;95937.34;;;14.79;84.59
62103;BME280;48077;48.104;11.702;2023-05-25T10:03:21;95951.13;;;15.05;83.88
62103;BME280;48077;48.104;11.702;2023-05-25T10:05:45;95960.44;;;15.19;81.89
62103;BME280;48077;48.104;11.702;2023-05-25T10:08:09;95964.16;;;15.18;81.97
62103;BME280;48077;48.104;11.702;2023-05-25T10:10:33;95972.75;;;15.15;81.67
62103;BME280;48077;48.104;11.702;2023-05-25T10:12:57;95963.69;;;15.21;78.71
62103;BME280;48077;48.104;11.702;2023-05-25T10:15:22;95957.50;;;14.98;79.92
62103;BME280;48077;48.104;11.702;2023-05-25T10:17:51;95964.34;;;14.89;82.09
62103;BME280;48077;48.104;11.702;2023-05-25T10:20:15;95963.53;;;14.89;83.20
62103;BME280;48077;48.104;11.702;2023-05-25T10:22:43;95966.53;;;14.92;83.04
62103;BME280;48077;48.104;11.702;2023-05-25T10:25:25;95968.22;;;14.98;82.14
62103;BME280;48077;48.104;11.702;2023-05-25T10:27:58;95966.69;;;15.03;81.86
62103;BME280;48077;48.104;11.702;2023-05-25T10:30:24;95953.97;;;15.20;80.36
62103;BME280;48077;48.104;11.702;2023-05-25T10:32:48;95956.81;;;15.08;81.30
62103;BME280;48077;48.104;11.702;2023-05-25T10:35:13;95944.25;;;14.92;81.93
62103;BME280;48077;48.104;11.702;2023-05-25T10:37:37;95949.09;;;14.95;82.05
62103;BME280;48077;48.104;11.702;2023-05-25T10:40:01;95958.19;;;15.11;82.34
62103;BME280;48077;48.104;11.702;2023-05-25T10:42:25;95955.44;;;15.28;82.43
62103;BME280;48077;48.104;11.702;2023-05-25T10:44:50;95944.44;;;15.29;82.19
62103;BME280;48077;48.104;11.702;2023-05-25T10:47:14;95932.28;;;15.27;81.33
62103;BME280;48077;48.104;11.702;2023-05-25T10:49:57;95947.84;;;15.47;81.98
62103;BME280;48077;48.104;11.702;2023-05-25T10:52:26;95950.69;;;15.62;80.24
62103;BME280;48077;48.104;11.702;2023-05-25T10:54:54;95954.69;;;15.59;81.52
62103;BME280;48077;48.104;11.702;2023-05-25T10:57:20;95955.94;;;15.74;79.19
62103;BME280;48077;48.104;11.702;2023-05-25T10:59:48;95963.50;;;15.77;78.68
62103;BME280;48077;48.104;11.702;2023-05-25T11:02:11;95960.19;;;15.70;79.64
62103;BME280;48077;48.104;11.702;2023-05-25T11:04:35;95944.56;;;15.67;79.91
62103;BME280;48077;48.104;11.702;2023-05-25T11:07:05;95963.59;;;15.87;79.45
62103;BME280;48077;48.104;11.702;2023-05-25T11:09:40;95950.97;;;15.88;81.41
62103;BME280;48077;48.104;11.702;2023-05-25T11:12:05;95952.03;;;15.87;78.99
62103;BME280;48077;48.104;11.702;2023-05-25T11:14:31;95964.63;;;15.81;79.31
62103;BME280;48077;48.104;11.702;2023-05-25T11:17:10;95967.06;;;15.83;79.06
62103;BME280;48077;48.104;11.702;2023-05-25T11:19:42;95959.78;;;15.83;78.92
62103;BME280;48077;48.104;11.702;2023-05-25T11:22:13;95967.72;;;15.95;78.56
62103;BME280;48077;48.104;11.702;2023-05-25T11:24:38;95975.97;;;16.15;76.25
62103;BME280;48077;48.104;11.702;2023-05-25T11:27:01;95959.19;;;16.03;77.48
62103;BME280;48077;48.104;11.702;2023-05-25T11:29:29;95952.63;;;16.21;77.33
62103;BME280;48077;48.104;11.702;2023-05-25T11:31:54;95952.69;;;16.31;77.08
62103;BME280;48077;48.104;11.702;2023-05-25T11:34:20;95953.81;;;16.35;75.45
62103;BME280;48077;48.104;11.702;2023-05-25T11:36:43;95951.16;;;16.46;74.40
62103;BME280;48077;48.104;11.702;2023-05-25T11:39:08;95941.63;;;16.28;76.75
62103;BME280;48077;48.104;11.702;2023-05-25T11:41:31;95937.44;;;16.42;75.42
62103;BME280;48077;48.104;11.702;2023-05-25T11:43:55;95944.56;;;16.64;75.31
62103;BME280;48077;48.104;11.702;2023-05-25T11:46:21;95940.56;;;16.71;75.00
62103;BME280;48077;48.104;11.702;2023-05-25T11:48:49;95948.50;;;16.88;73.74
62103;BME280;48077;48.104;11.702;2023-05-25T11:51:14;95932.75;;;17.17;73.20
62103;BME280;48077;48.104;11.702;2023-05-25T11:53:41;95937.78;;;17.04;72.73
62103;BME280;48077;48.104;11.702;2023-05-25T11:56:05;95930.75;;;16.92;74.43
62103;BME280;48077;48.104;11.702;2023-05-25T11:58:33;95939.41;;;16.99;73.22
62103;BME280;48077;48.104;11.702;2023-05-25T12:01:17;95922.50;;;17.25;72.16
62103;BME280;48077;48.104;11.702;2023-05-25T12:03:41;95922.31;;;17.52;70.98
62103;BME280;48077;48.104;11.702;2023-05-25T12:06:05;95904.28;;;17.68;71.10
62103;BME280;48077;48.104;11.702;2023-05-25T12:08:32;95928.66;;;18.14;69.58
62103;BME280;48077;48.104;11.702;2023-05-25T12:10:55;95924.59;;;18.37;67.64
62103;BME280;48077;48.104;11.702;2023-05-25T12:13:19;95921.91;;;18.32;66.26
62103;BME280;48077;48.104;11.702;2023-05-25T12:15:42;95921.09;;;18.00;68.86
62103;BME280;48077;48.104;11.702;2023-05-25T12:18:06;95923.75;;;17.80;69.11
62103;BME280;48077;48.104;11.702;2023-05-25T12:20:29;95924.31;;;17.97;69.13
62103;BME280;48077;48.104;11.702;2023-05-25T12:22:53;95915.97;;;17.94;69.63
62103;BME280;48077;48.104;11.702;2023-05-25T12:25:20;95914.56;;;18.84;67.90
62103;BME280;48077;48.104;11.702;2023-05-25T12:27:43;95896.63;;;19.03;66.54
62103;BME280;48077;48.104;11.702;2023-05-25T12:30:08;95917.66;;;19.21;67.25
62103;BME280;48077;48.104;11.702;2023-05-25T12:32:59;95919.84;;;19.69;62.64
62103;BME280;48077;48.104;11.702;2023-05-25T12:35:25;95919.94;;;19.98;63.84
62103;BME280;48077;48.104;11.702;2023-05-25T12:37:48;95910.13;;;19.63;64.31
62103;BME280;48077;48.104;11.702;2023-05-25T12:40:18;95913.97;;;19.57;63.62
62103;BME280;48077;48.104;11.702;2023-05-25T12:42:42;95914.84;;;19.42;66.14
62103;BME280;48077;48.104;11.702;2023-05-25T12:45:06;95920.34;;;19.16;65.93